Time;durP1;ratioP1;P1;durP2;ratioP2;P2;SDS_P1;SDS_P2;PMS_P1;PMS_P2;Temp;Humidity;BMP_temperature;BMP_pressure;BME280_temperature;BME280_humidity;BME280_pressure;Samples;Min_cycle;Max_cycle;Signal;HPM_P1;HPM_P2
2022/07/04 00:00:10;;;;;;;8.32;2.53;;;15.10;99.90;;;;;;5032140;28;35725;-56
2022/07/04 00:02:41;;;;;;;6.88;2.88;;;15.10;99.90;;;;;;5030986;28;37025;-56
2022/07/04 00:05:10;;;;;;;4.43;2.10;;;15.00;99.90;;;;;;5032589;28;36290;-56
2022/07/04 00:07:37;;;;;;;5.75;2.63;;;15.10;99.90;;;;;;5030878;28;37925;-56
2022/07/04 00:10:05;;;;;;;5.93;2.47;;;14.90;99.90;;;;;;5032193;28;37119;-56
2022/07/04 00:12:32;;;;;;;5.43;2.30;;;15.00;99.90;;;;;;5032034;28;36776;-56
2022/07/04 00:15:00;;;;;;;7.90;3.17;;;15.00;99.90;;;;;;5032191;28;37463;-56
2022/07/04 00:17:27;;;;;;;8.75;2.50;;;15.00;99.90;;;;;;5033363;28;38028;-56
2022/07/04 00:19:56;;;;;;;4.97;2.30;;;15.00;99.90;;;;;;5032537;28;38180;-56
2022/07/04 00:22:23;;;;;;;5.90;2.13;;;14.90;99.90;;;;;;5033633;28;36726;-56
2022/07/04 00:24:51;;;;;;;5.93;2.72;;;14.90;99.90;;;;;;5032440;28;38434;-56
2022/07/04 00:27:19;;;;;;;6.20;2.83;;;14.90;99.90;;;;;;5031931;28;36173;-56
2022/07/04 00:29:46;;;;;;;6.13;2.50;;;14.90;99.90;;;;;;5032696;28;37509;-56
2022/07/04 00:32:13;;;;;;;4.00;2.10;;;14.90;99.90;;;;;;5031701;28;36605;-56
2022/07/04 00:34:41;;;;;;;7.47;2.53;;;14.90;99.90;;;;;;5032607;28;36190;-56
2022/07/04 00:37:10;;;;;;;5.50;2.25;;;14.90;99.90;;;;;;5031984;28;37405;-56
2022/07/04 00:39:37;;;;;;;6.75;2.33;;;14.80;99.90;;;;;;5032071;28;37116;-56
2022/07/04 00:42:06;;;;;;;7.35;2.63;;;14.80;99.90;;;;;;5031101;28;36438;-56
2022/07/04 00:44:36;;;;;;;6.25;2.20;;;14.80;99.90;;;;;;5032272;28;37664;-56
2022/07/04 00:47:04;;;;;;;4.63;2.33;;;14.80;99.90;;;;;;5031851;28;37331;-56
2022/07/04 00:49:32;;;;;;;8.13;2.95;;;14.80;99.90;;;;;;5032125;28;37938;-56
2022/07/04 00:52:00;;;;;;;8.52;2.63;;;14.80;99.90;;;;;;5031849;28;37379;-56
2022/07/04 00:54:31;;;;;;;8.50;2.78;;;14.70;99.90;;;;;;5031955;28;39016;-56
2022/07/04 00:56:59;;;;;;;5.65;2.38;;;14.80;99.90;;;;;;5032019;28;37483;-56
2022/07/04 00:59:27;;;;;;;5.63;2.58;;;14.80;99.90;;;;;;5030842;28;36854;-56
2022/07/04 01:01:54;;;;;;;6.63;2.33;;;14.80;99.90;;;;;;5031672;28;35348;-56
2022/07/04 01:04:22;;;;;;;6.03;2.70;;;14.70;99.90;;;;;;5030818;28;39078;-56
2022/07/04 01:06:50;;;;;;;6.40;2.47;;;14.80;99.90;;;;;;5031453;28;37957;-56
2022/07/04 01:09:17;;;;;;;6.25;2.55;;;14.70;99.90;;;;;;5031028;28;37282;-56
2022/07/04 01:11:49;;;;;;;6.63;3.00;;;14.70;99.90;;;;;;5031817;28;36150;-56
2022/07/04 01:14:16;;;;;;;6.60;2.65;;;14.70;99.90;;;;;;5031015;28;37232;-56
2022/07/04 01:16:43;;;;;;;8.27;2.90;;;14.70;99.90;;;;;;5032009;28;37984;-56
2022/07/04 01:19:11;;;;;;;5.72;2.67;;;14.70;99.90;;;;;;5031930;28;35635;-56
2022/07/04 01:21:40;;;;;;;6.35;2.25;;;14.70;99.90;;;;;;5030352;28;37401;-56
2022/07/04 01:24:08;;;;;;;5.15;2.38;;;14.70;99.90;;;;;;5032924;28;37508;-56
2022/07/04 01:26:35;;;;;;;4.25;2.38;;;14.70;99.90;;;;;;5031412;28;37371;-56
2022/07/04 01:29:02;;;;;;;7.40;3.10;;;14.70;99.90;;;;;;5030169;28;36944;-55
2022/07/04 01:31:30;;;;;;;7.93;3.08;;;14.70;99.90;;;;;;5030324;28;37212;-56
2022/07/04 01:33:57;;;;;;;5.90;3.17;;;14.60;99.90;;;;;;5031222;28;37860;-55
2022/07/04 01:36:24;;;;;;;5.45;2.85;;;14.60;99.90;;;;;;5032047;28;35876;-56
2022/07/04 01:38:54;;;;;;;7.10;2.70;;;14.70;99.90;;;;;;5032626;28;38071;-56
2022/07/04 01:41:21;;;;;;;5.75;2.95;;;14.60;99.90;;;;;;5031705;28;35242;-56
2022/07/04 01:43:48;;;;;;;6.45;2.60;;;14.70;99.90;;;;;;5030533;28;37726;-56
2022/07/04 01:46:16;;;;;;;9.60;3.00;;;14.60;99.90;;;;;;5031363;28;37348;-56
2022/07/04 01:48:43;;;;;;;6.28;2.80;;;14.60;99.90;;;;;;5031707;28;37346;-56
2022/07/04 01:51:10;;;;;;;8.07;3.15;;;14.60;99.90;;;;;;5032662;28;36950;-56
2022/07/04 01:53:38;;;;;;;7.68;3.40;;;14.60;99.90;;;;;;5031853;28;37680;-56
2022/07/04 01:56:07;;;;;;;7.78;3.47;;;14.60;99.90;;;;;;5031556;28;37543;-56
2022/07/04 01:58:34;;;;;;;5.55;3.00;;;14.60;99.90;;;;;;5032539;28;36876;-55
2022/07/04 02:03:46;;;;;;;8.50;3.45;;;14.60;99.90;;;;;;5033719;28;37691;-56
2022/07/04 02:06:14;;;;;;;6.82;3.28;;;14.60;99.90;;;;;;5035019;28;37482;-56
2022/07/04 02:11:28;;;;;;;5.72;3.25;;;14.60;99.90;;;;;;5034642;28;40129;-56
2022/07/04 02:13:54;;;;;;;6.00;3.13;;;14.60;99.90;;;;;;5034365;28;38164;-56
2022/07/04 02:16:21;;;;;;;5.93;3.13;;;14.60;99.90;;;;;;5033840;28;35999;-56
2022/07/04 02:18:49;;;;;;;7.63;3.47;;;14.60;99.90;;;;;;5035267;28;37197;-56
2022/07/04 02:21:16;;;;;;;5.60;3.40;;;14.60;99.90;;;;;;5034273;28;37161;-56
2022/07/04 02:23:43;;;;;;;5.85;3.42;;;14.60;99.90;;;;;;5035165;28;36290;-56
2022/07/04 02:26:11;;;;;;;6.13;3.88;;;14.60;99.90;;;;;;5034542;28;37232;-56
2022/07/04 02:28:39;;;;;;;8.55;3.83;;;14.60;99.90;;;;;;5034423;28;36737;-56
2022/07/04 02:31:07;;;;;;;8.90;4.03;;;14.60;99.90;;;;;;5032882;28;37339;-56
2022/07/04 02:33:37;;;;;;;8.13;4.00;;;14.60;99.90;;;;;;5033725;28;38324;-56
2022/07/04 02:36:05;;;;;;;8.27;4.13;;;14.60;99.90;;;;;;5035152;28;38868;-55
2022/07/04 02:38:32;;;;;;;5.72;3.58;;;14.70;99.90;;;;;;5033740;28;37120;-56
2022/07/04 02:40:59;;;;;;;7.10;4.03;;;14.60;99.90;;;;;;5034658;28;36348;-56
2022/07/04 02:43:27;;;;;;;7.85;4.03;;;14.60;99.90;;;;;;5033555;28;37328;-56
2022/07/04 02:45:56;;;;;;;8.60;4.75;;;14.70;99.90;;;;;;5033998;28;36243;-56
2022/07/04 02:48:23;;;;;;;9.73;5.45;;;14.70;99.90;;;;;;5033957;28;37009;-56
2022/07/04 02:50:50;;;;;;;8.77;5.13;;;14.70;99.90;;;;;;5035116;28;36503;-56
2022/07/04 02:53:17;;;;;;;8.77;4.65;;;14.70;99.90;;;;;;5033809;28;37209;-56
2022/07/04 02:55:45;;;;;;;8.55;5.47;;;14.70;99.90;;;;;;5035096;28;36076;-55
2022/07/04 02:58:12;;;;;;;8.15;5.28;;;14.70;99.90;;;;;;5034511;28;38098;-56
2022/07/04 03:00:40;;;;;;;6.82;4.63;;;14.70;99.90;;;;;;5033307;28;37809;-56
2022/07/04 03:03:08;;;;;;;9.00;4.88;;;14.70;99.90;;;;;;5033372;28;39239;-56
2022/07/04 03:05:36;;;;;;;8.35;5.57;;;14.70;99.90;;;;;;5034612;28;35958;-55
2022/07/04 03:08:03;;;;;;;8.77;5.03;;;14.70;99.90;;;;;;5034722;28;39400;-55
2022/07/04 03:10:30;;;;;;;8.98;4.93;;;14.70;99.90;;;;;;5034470;28;36660;-55
2022/07/04 03:12:58;;;;;;;12.13;5.30;;;14.70;99.90;;;;;;5033931;28;37609;-56
2022/07/04 03:15:28;;;;;;;8.15;4.55;;;14.70;99.90;;;;;;5033479;28;37302;-56
2022/07/04 03:17:55;;;;;;;9.70;4.63;;;14.60;99.90;;;;;;5033632;28;35949;-55
2022/07/04 03:20:24;;;;;;;7.82;5.40;;;14.60;99.90;;;;;;5032552;28;36704;-55
2022/07/04 03:22:54;;;;;;;7.32;4.57;;;14.60;99.90;;;;;;5033900;28;36289;-56
2022/07/04 03:25:21;;;;;;;9.88;5.22;;;14.70;99.90;;;;;;5033729;28;38005;-55
2022/07/04 03:27:49;;;;;;;7.80;4.60;;;14.70;99.90;;;;;;5033614;28;35732;-56
2022/07/04 03:30:16;;;;;;;10.25;5.10;;;14.70;99.90;;;;;;5032963;28;37849;-56
2022/07/04 03:32:43;;;;;;;9.40;4.78;;;14.70;99.90;;;;;;5032814;28;39127;-55
2022/07/04 03:35:11;;;;;;;7.75;5.10;;;14.70;99.90;;;;;;5033084;28;39485;-55
2022/07/04 03:37:39;;;;;;;12.30;6.38;;;14.70;99.90;;;;;;5032901;28;37041;-55
2022/07/04 03:40:08;;;;;;;8.40;4.78;;;14.70;99.90;;;;;;5031055;28;36186;-55
2022/07/04 03:42:35;;;;;;;8.88;5.63;;;14.70;99.90;;;;;;5034320;28;37600;-55
2022/07/04 03:45:02;;;;;;;11.02;5.60;;;14.70;99.90;;;;;;5033152;28;36126;-55
2022/07/04 03:47:30;;;;;;;11.32;5.43;;;14.80;99.90;;;;;;5033209;28;37065;-55
2022/07/04 03:49:57;;;;;;;10.48;5.70;;;14.80;99.90;;;;;;5031985;28;37744;-55
2022/07/04 03:52:25;;;;;;;8.27;5.32;;;14.90;99.90;;;;;;5033100;28;38089;-55
2022/07/04 03:54:54;;;;;;;10.15;5.43;;;14.90;99.90;;;;;;5033166;28;38411;-55
2022/07/04 03:57:21;;;;;;;7.43;5.07;;;15.00;99.90;;;;;;5033943;28;37624;-55
2022/07/04 03:59:48;;;;;;;9.80;4.88;;;15.00;99.90;;;;;;5032499;28;36482;-55
2022/07/04 04:02:16;;;;;;;8.15;4.95;;;15.10;99.90;;;;;;5034079;28;37114;-55
2022/07/04 04:07:31;;;;;;;7.88;4.93;;;15.30;99.90;;;;;;5033997;28;38796;-55
2022/07/04 04:09:59;;;;;;;7.50;4.45;;;15.40;99.90;;;;;;5032206;28;37405;-55
2022/07/04 04:12:27;;;;;;;13.70;6.15;;;15.50;99.90;;;;;;5033783;28;40063;-55
2022/07/04 04:14:54;;;;;;;7.53;4.53;;;15.50;99.90;;;;;;5032968;28;37334;-55
2022/07/04 04:17:21;;;;;;;9.20;4.35;;;15.60;99.90;;;;;;5033047;28;36959;-55
2022/07/04 04:19:50;;;;;;;7.90;4.38;;;15.70;99.90;;;;;;5033332;28;37122;-55
2022/07/04 04:22:18;;;;;;;7.22;3.90;;;15.80;99.90;;;;;;5032754;28;38049;-55
2022/07/04 04:24:45;;;;;;;8.05;4.60;;;15.90;99.90;;;;;;5030712;28;37389;-55
2022/07/04 04:27:14;;;;;;;13.60;4.30;;;16.00;99.90;;;;;;5032995;28;35702;-55
2022/07/04 04:29:41;;;;;;;11.90;4.88;;;16.10;99.90;;;;;;5032120;28;36456;-55
2022/07/04 04:32:09;;;;;;;6.75;3.65;;;16.20;99.90;;;;;;5031269;28;38384;-55
2022/07/04 04:34:36;;;;;;;9.50;4.38;;;16.20;99.90;;;;;;5033087;28;37488;-55
2022/07/04 04:37:04;;;;;;;9.52;4.13;;;16.30;99.90;;;;;;5032150;28;37278;-55
2022/07/04 04:39:31;;;;;;;6.88;3.88;;;16.50;99.90;;;;;;5032949;28;36763;-55
2022/07/04 04:41:58;;;;;;;6.97;3.58;;;16.50;99.90;;;;;;5032993;28;38595;-55
2022/07/04 04:44:27;;;;;;;6.63;4.00;;;16.60;99.90;;;;;;5032150;28;37876;-55
2022/07/04 04:46:54;;;;;;;7.85;4.03;;;16.60;99.90;;;;;;5032220;28;36018;-55
2022/07/04 04:49:22;;;;;;;8.10;4.22;;;16.70;99.90;;;;;;5032442;28;36270;-55
2022/07/04 04:51:49;;;;;;;6.88;3.65;;;16.70;99.90;;;;;;5029938;28;36207;-55
2022/07/04 04:54:16;;;;;;;7.93;3.58;;;16.70;99.90;;;;;;5032142;28;37456;-55
2022/07/04 04:56:44;;;;;;;6.50;3.03;;;16.80;99.90;;;;;;5032143;28;38248;-55
2022/07/04 04:59:11;;;;;;;6.75;3.25;;;16.90;99.90;;;;;;5030956;28;35418;-55
2022/07/04 05:01:40;;;;;;;7.45;3.72;;;16.90;99.90;;;;;;5032458;28;37554;-55
2022/07/04 05:04:07;;;;;;;8.50;3.80;;;16.90;99.90;;;;;;5032178;28;38440;-55
2022/07/04 05:06:34;;;;;;;7.20;3.67;;;17.00;99.90;;;;;;5032158;28;37295;-55
2022/07/04 05:09:02;;;;;;;8.95;3.85;;;17.10;99.90;;;;;;5032954;28;34874;-55
2022/07/04 05:11:29;;;;;;;8.65;3.47;;;17.20;99.90;;;;;;5032728;28;38679;-55
2022/07/04 05:13:56;;;;;;;9.50;3.92;;;17.20;99.90;;;;;;5031049;28;37359;-55
2022/07/04 05:16:23;;;;;;;7.15;3.50;;;17.30;99.90;;;;;;5029937;28;36649;-55
2022/07/04 05:18:52;;;;;;;8.35;3.85;;;17.40;99.90;;;;;;5030945;28;37560;-55
2022/07/04 05:21:19;;;;;;;7.43;3.63;;;17.40;99.90;;;;;;5030465;28;38376;-55
2022/07/04 05:23:47;;;;;;;10.75;4.53;;;17.40;99.90;;;;;;5032063;28;36066;-56
2022/07/04 05:26:17;;;;;;;8.00;3.80;;;17.40;99.90;;;;;;5032009;28;37113;-55
2022/07/04 05:28:44;;;;;;;9.27;4.05;;;17.40;99.90;;;;;;5031974;28;37427;-55
2022/07/04 05:31:11;;;;;;;10.35;4.22;;;17.30;99.90;;;;;;5029419;28;39726;-55
2022/07/04 05:33:39;;;;;;;8.48;3.50;;;17.30;99.90;;;;;;5032008;28;39034;-55
2022/07/04 05:36:08;;;;;;;8.10;3.80;;;17.30;99.90;;;;;;5033043;28;35651;-55
2022/07/04 05:38:35;;;;;;;5.80;3.90;;;17.40;99.90;;;;;;5035299;28;37883;-56
2022/07/04 05:41:03;;;;;;;10.15;3.75;;;17.50;99.90;;;;;;5034380;28;39357;-55
2022/07/04 05:43:30;;;;;;;8.35;3.83;;;17.60;99.90;;;;;;5035673;28;37434;-56
2022/07/04 05:45:57;;;;;;;8.02;4.07;;;17.80;99.90;;;;;;5033056;28;36615;-56
2022/07/04 05:48:25;;;;;;;6.07;3.50;;;17.90;99.90;;;;;;5035547;28;36997;-56
2022/07/04 05:50:52;;;;;;;9.90;3.88;;;18.00;99.90;;;;;;5035339;28;39882;-56
2022/07/04 05:53:21;;;;;;;8.88;3.50;;;18.20;99.90;;;;;;5034563;28;35974;-56
2022/07/04 05:55:48;;;;;;;8.32;3.95;;;18.30;99.90;;;;;;5032322;28;37555;-56
2022/07/04 05:58:15;;;;;;;8.55;3.85;;;18.40;99.90;;;;;;5032682;28;36754;-56
2022/07/04 06:00:43;;;;;;;5.80;3.53;;;18.50;99.90;;;;;;5033039;28;39939;-56
2022/07/04 06:03:10;;;;;;;7.18;3.63;;;18.70;99.90;;;;;;5034229;28;36028;-56
2022/07/04 06:05:37;;;;;;;7.20;3.65;;;18.70;99.90;;;;;;5035498;28;37454;-56
2022/07/04 06:08:05;;;;;;;9.57;3.45;;;18.60;99.90;;;;;;5034579;28;36315;-56
2022/07/04 06:10:34;;;;;;;7.63;3.38;;;18.70;99.90;;;;;;5033656;28;36316;-56
2022/07/04 06:13:01;;;;;;;9.10;3.67;;;18.70;99.90;;;;;;5035137;28;36052;-56
2022/07/04 06:15:31;;;;;;;7.78;3.40;;;18.80;99.90;;;;;;5033911;28;37083;-56
2022/07/04 06:17:58;;;;;;;8.95;2.97;;;18.90;99.90;;;;;;5033529;28;37292;-56
2022/07/04 06:20:26;;;;;;;7.22;3.22;;;19.00;99.90;;;;;;5035139;28;36351;-56
2022/07/04 06:22:53;;;;;;;5.70;2.88;;;19.10;99.90;;;;;;5026537;28;38356;-56
2022/07/04 06:25:21;;;;;;;9.35;3.58;;;19.20;99.90;;;;;;5029286;28;36689;-56
2022/07/04 06:27:52;;;;;;;9.15;3.70;;;19.40;99.90;;;;;;5029787;28;36784;-56
2022/07/04 06:30:19;;;;;;;9.15;3.22;;;19.50;99.90;;;;;;5029158;28;38716;-56
2022/07/04 06:32:48;;;;;;;7.78;3.38;;;19.60;99.90;;;;;;5031979;28;37291;-58
2022/07/04 06:38:03;;;;;;;8.85;3.13;;;19.70;99.90;;;;;;5038066;28;38781;-58
2022/07/04 06:40:31;;;;;;;7.63;3.17;;;19.80;99.90;;;;;;5036647;28;38528;-58
2022/07/04 06:42:59;;;;;;;6.68;3.03;;;19.90;99.90;;;;;;5034447;28;36247;-58
2022/07/04 06:45:27;;;;;;;7.00;2.67;;;20.00;99.90;;;;;;5034340;28;37182;-59
2022/07/04 06:47:54;;;;;;;10.18;3.13;;;20.10;99.90;;;;;;5035151;28;37294;-58
2022/07/04 06:50:22;;;;;;;8.43;3.30;;;20.10;99.90;;;;;;5036175;28;38781;-58
2022/07/04 06:52:49;;;;;;;11.65;3.25;;;20.20;99.90;;;;;;5032571;28;37566;-59
2022/07/04 06:55:16;;;;;;;7.65;2.90;;;20.30;99.90;;;;;;5032961;28;37619;-57
2022/07/04 06:57:44;;;;;;;7.30;3.03;;;20.30;99.90;;;;;;5030317;28;36839;-59
2022/07/04 07:00:13;;;;;;;9.70;3.40;;;20.40;99.90;;;;;;5029332;28;38476;-58
2022/07/04 07:02:41;;;;;;;8.70;3.17;;;20.40;99.90;;;;;;5030984;28;38373;-58
2022/07/04 07:05:09;;;;;;;8.80;3.10;;;20.40;99.90;;;;;;5031533;28;36843;-58
2022/07/04 07:07:36;;;;;;;8.27;2.67;;;20.40;99.90;;;;;;5031132;28;37567;-59
2022/07/04 07:10:06;;;;;;;7.05;2.85;;;20.40;99.90;;;;;;5029711;28;37634;-58
2022/07/04 07:12:34;;;;;;;14.52;3.28;;;20.40;99.90;;;;;;5029469;28;37343;-59
2022/07/04 07:15:01;;;;;;;10.00;2.80;;;20.40;99.90;;;;;;5030283;28;37579;-58
2022/07/04 07:17:30;;;;;;;7.63;2.20;;;20.50;99.90;;;;;;5028737;28;37877;-58
2022/07/04 07:19:57;;;;;;;6.72;2.97;;;20.40;99.90;;;;;;5028146;28;38004;-58
2022/07/04 07:22:25;;;;;;;9.93;3.08;;;20.40;99.90;;;;;;5028137;28;37258;-58
2022/07/04 07:24:52;;;;;;;9.18;2.28;;;20.20;99.90;;;;;;5028144;28;36985;-58
2022/07/04 07:27:19;;;;;;;5.18;2.03;;;20.10;99.90;;;;;;5028698;28;35325;-58
2022/07/04 07:29:47;;;;;;;7.38;2.17;;;20.00;99.90;;;;;;5027907;28;37782;-58
2022/07/04 07:32:14;;;;;;;6.28;1.90;;;19.90;99.90;;;;;;5027109;28;37760;-58
2022/07/04 07:34:43;;;;;;;5.03;2.08;;;19.90;99.90;;;;;;5028392;28;35734;-58
2022/07/04 07:37:10;;;;;;;7.32;2.17;;;20.00;99.90;;;;;;5028764;28;37415;-58
2022/07/04 07:39:38;;;;;;;5.70;2.33;;;20.00;99.90;;;;;;5029491;28;36975;-59
2022/07/04 07:42:05;;;;;;;7.03;2.40;;;20.10;99.90;;;;;;5028952;28;37504;-59
2022/07/04 07:44:33;;;;;;;7.32;2.70;;;20.20;99.90;;;;;;5029094;28;35772;-57
2022/07/04 07:47:00;;;;;;;10.45;2.33;;;20.10;99.90;;;;;;5029387;28;36521;-59
2022/07/04 07:49:27;;;;;;;5.75;2.13;;;20.00;99.90;;;;;;5029148;28;37621;-59
2022/07/04 07:51:56;;;;;;;6.78;2.45;;;19.90;99.90;;;;;;5029375;28;38545;-58
2022/07/04 07:54:24;;;;;;;10.45;2.25;;;19.70;99.90;;;;;;5028459;28;37675;-59
2022/07/04 07:56:51;;;;;;;9.15;2.47;;;19.50;99.90;;;;;;5029078;28;36530;-60
2022/07/04 07:59:18;;;;;;;6.10;1.98;;;19.40;99.90;;;;;;5028480;28;37538;-58
2022/07/04 08:01:46;;;;;;;8.73;2.60;;;19.30;99.90;;;;;;5029486;28;36061;-58
2022/07/04 08:06:59;;;;;;;5.60;2.45;;;19.10;99.90;;;;;;5030225;28;36229;-58
2022/07/04 08:09:27;;;;;;;9.27;2.50;;;19.00;99.90;;;;;;5029666;28;36340;-59
2022/07/04 08:11:54;;;;;;;7.35;2.40;;;18.90;99.90;;;;;;5030318;28;39711;-60
2022/07/04 08:14:21;;;;;;;5.55;2.13;;;18.80;99.90;;;;;;5030822;28;37625;-59
2022/07/04 08:16:49;;;;;;;8.65;2.10;;;18.80;99.90;;;;;;5030366;28;35395;-58
2022/07/04 08:19:16;;;;;;;6.10;2.38;;;18.70;99.90;;;;;;5028825;28;38629;-58
2022/07/04 08:21:46;;;;;;;6.35;1.83;;;18.80;99.90;;;;;;5028574;28;38141;-59
2022/07/04 08:24:15;;;;;;;8.52;1.88;;;18.90;99.90;;;;;;5029264;28;37539;-60
2022/07/04 08:26:42;;;;;;;5.05;1.67;;;19.00;99.90;;;;;;5031770;28;36507;-59
2022/07/04 08:29:10;;;;;;;6.43;1.73;;;19.10;99.90;;;;;;5028840;28;37575;-60
2022/07/04 08:31:38;;;;;;;7.68;2.15;;;19.10;99.90;;;;;;5029418;28;38066;-60
2022/07/04 08:34:05;;;;;;;7.65;2.55;;;19.10;99.90;;;;;;5029792;28;36243;-58
2022/07/04 08:36:32;;;;;;;4.85;1.80;;;19.10;99.90;;;;;;5029932;28;36405;-58
2022/07/04 08:38:59;;;;;;;5.20;1.33;;;19.10;99.90;;;;;;5029806;28;36314;-58
2022/07/04 08:41:34;;;;;;;6.13;1.40;;;19.10;99.90;;;;;;5030317;28;37337;-58
2022/07/04 08:44:02;;;;;;;5.03;1.88;;;19.20;99.90;;;;;;5029160;28;36797;-55
2022/07/04 08:46:31;;;;;;;5.90;1.33;;;19.40;99.90;;;;;;5026509;28;37268;-56
2022/07/04 08:49:02;;;;;;;2.95;1.33;;;19.60;99.90;;;;;;5028543;28;37605;-59
2022/07/04 08:51:38;;;;;;;2.55;1.30;;;19.80;99.90;;;;;;5027279;28;37221;-56
2022/07/04 08:58:25;;;;;;;6.95;1.27;;;20.10;99.90;;;;;;5027552;28;37043;-56
2022/07/04 08:59:48;;;;;;;3.03;0.95;;;20.50;99.90;;;;;;5028436;28;37424;-59
2022/07/04 09:02:18;;;;;;;6.75;1.40;;;20.70;99.90;;;;;;5029218;28;38961;-60
2022/07/04 09:04:45;;;;;;;4.78;1.13;;;20.80;99.90;;;;;;5027169;28;35664;-58
2022/07/04 09:07:13;;;;;;;5.97;1.15;;;21.00;99.90;;;;;;5026988;28;37475;-56
2022/07/04 09:09:41;;;;;;;5.00;1.90;;;21.10;98.80;;;;;;5028312;28;39250;-56
2022/07/04 09:12:11;;;;;;;3.22;0.95;;;21.20;97.90;;;;;;5031346;28;37542;-59
2022/07/04 09:14:38;;;;;;;2.58;0.90;;;21.30;97.60;;;;;;5032204;28;37183;-59
2022/07/04 09:17:07;;;;;;;6.13;1.40;;;21.40;97.70;;;;;;5032463;28;37049;-59
2022/07/04 09:19:35;;;;;;;3.28;0.75;;;21.40;96.90;;;;;;5030686;28;38255;-56
2022/07/04 09:22:10;;;;;;;5.07;1.13;;;21.30;96.20;;;;;;5031169;28;37317;-59
2022/07/04 09:24:48;;;;;;;5.13;1.23;;;21.10;95.70;;;;;;5031070;28;36929;-56
2022/07/04 09:27:33;;;;;;;3.38;1.02;;;20.90;95.30;;;;;;5031933;28;36690;-56
2022/07/04 09:30:01;;;;;;;3.60;1.10;;;20.70;95.10;;;;;;5031107;28;36261;-58
2022/07/04 09:32:36;;;;;;;2.97;1.10;;;20.60;96.50;;;;;;5031013;28;36103;-60
2022/07/04 09:35:05;;;;;;;6.13;1.02;;;20.80;97.30;;;;;;5031248;28;36810;-59
2022/07/04 09:37:37;;;;;;;3.35;1.10;;;20.80;96.70;;;;;;5030752;28;36850;-56
2022/07/04 09:40:06;;;;;;;3.70;1.05;;;20.90;96.40;;;;;;5029794;28;38817;-56
2022/07/04 09:42:42;;;;;;;3.72;1.20;;;21.00;96.20;;;;;;5030626;28;39373;-56
2022/07/04 09:45:11;;;;;;;2.55;1.08;;;21.00;96.10;;;;;;5030036;28;35736;-60
2022/07/04 09:47:40;;;;;;;3.55;1.40;;;21.00;96.30;;;;;;5029993;28;37075;-59
2022/07/04 09:50:09;;;;;;;3.47;0.98;;;21.20;96.50;;;;;;5029937;28;38197;-59
2022/07/04 09:52:47;;;;;;;4.38;1.00;;;21.30;96.70;;;;;;5027364;28;37089;-60
2022/07/04 09:55:22;;;;;;;2.33;1.10;;;21.50;95.80;;;;;;5027679;28;38687;-59
2022/07/04 09:57:51;;;;;;;3.00;0.80;;;21.70;96.30;;;;;;5028908;28;36419;-59
2022/07/04 10:00:24;;;;;;;3.55;1.10;;;21.80;95.80;;;;;;5029745;28;36409;-56
2022/07/04 10:02:52;;;;;;;6.00;1.10;;;21.70;95.50;;;;;;5029595;28;38613;-59
2022/07/04 10:05:25;;;;;;;4.82;1.08;;;21.60;95.20;;;;;;5030631;28;36499;-57
2022/07/04 10:07:55;;;;;;;3.53;0.98;;;21.50;94.40;;;;;;5030235;28;35248;-56
2022/07/04 10:10:28;;;;;;;3.67;0.90;;;21.50;94.40;;;;;;5030156;28;37810;-56
2022/07/04 10:13:00;;;;;;;3.45;1.13;;;21.60;93.50;;;;;;5029484;28;36218;-56
2022/07/04 10:15:27;;;;;;;2.15;0.77;;;21.70;93.90;;;;;;5029986;28;40181;-56
2022/07/04 10:17:55;;;;;;;6.50;1.35;;;21.90;93.40;;;;;;5029304;28;36617;-56
2022/07/04 10:20:22;;;;;;;5.82;1.10;;;22.00;93.50;;;;;;5028385;28;37650;-56
2022/07/04 10:22:50;;;;;;;3.55;0.90;;;22.10;93.40;;;;;;5028591;28;35958;-56
2022/07/04 10:25:18;;;;;;;2.30;0.82;;;22.10;92.50;;;;;;5030568;28;37040;-56
2022/07/04 10:27:48;;;;;;;4.70;1.10;;;22.20;92.60;;;;;;5026515;28;36702;-56
2022/07/04 10:30:22;;;;;;;3.17;0.93;;;22.30;92.00;;;;;;5029069;28;36436;-56
2022/07/04 10:32:51;;;;;;;4.15;1.40;;;22.40;91.40;;;;;;5027245;28;36989;-56
2022/07/04 10:35:49;;;;;;;2.67;1.38;;;22.40;91.70;;;;;;5028532;28;37201;-56
2022/07/04 10:38:17;;;;;;;3.72;1.10;;;22.30;91.90;;;;;;5028924;28;34989;-56
2022/07/04 10:40:50;;;;;;;4.25;0.98;;;22.40;91.40;;;;;;5029206;28;37656;-56
2022/07/04 10:44:00;;;;;;;3.13;1.00;;;22.40;90.30;;;;;;5029853;28;37264;-57
2022/07/04 10:46:37;;;;;;;3.30;0.90;;;22.50;86.30;;;;;;5029436;28;37402;-56
2022/07/04 10:49:07;;;;;;;3.47;0.95;;;22.50;88.90;;;;;;5029315;28;36619;-56
2022/07/04 10:51:41;;;;;;;4.50;0.90;;;22.60;87.80;;;;;;5029923;28;38276;-56
2022/07/04 10:54:11;;;;;;;1.95;0.80;;;22.70;89.90;;;;;;5030206;28;37641;-56
2022/07/04 10:56:51;;;;;;;4.13;0.70;;;22.70;90.20;;;;;;5028432;28;37886;-56
2022/07/04 10:59:21;;;;;;;3.90;1.15;;;22.70;90.20;;;;;;5030029;28;36132;-56
2022/07/04 11:01:52;;;;;;;2.60;0.77;;;22.70;90.10;;;;;;5029596;28;37871;-56
2022/07/04 11:04:48;;;;;;;1.98;0.73;;;22.60;88.50;;;;;;5029679;28;36836;-56
2022/07/04 11:07:18;;;;;;;3.15;0.90;;;22.40;86.70;;;;;;5029987;28;38091;-56
2022/07/04 11:09:45;;;;;;;7.78;0.80;;;22.20;88.30;;;;;;5029958;28;34926;-56
2022/07/04 11:12:14;;;;;;;1.83;0.88;;;22.20;88.30;;;;;;5028460;28;38081;-56
2022/07/04 11:14:43;;;;;;;4.38;0.88;;;22.20;87.60;;;;;;5029787;28;36816;-56
2022/07/04 11:17:13;;;;;;;4.50;0.82;;;22.40;86.70;;;;;;5029561;28;39130;-56
2022/07/04 11:19:42;;;;;;;2.85;0.70;;;22.50;87.90;;;;;;5029365;28;37347;-56
2022/07/04 11:22:10;;;;;;;3.42;0.80;;;22.50;86.20;;;;;;5028863;28;37441;-56
2022/07/04 11:24:38;;;;;;;2.72;0.80;;;22.70;84.30;;;;;;5027605;28;38961;-59
2022/07/04 11:27:09;;;;;;;4.57;1.23;;;22.70;83.00;;;;;;5029461;28;37260;-61
2022/07/04 11:29:36;;;;;;;2.17;0.63;;;22.60;84.00;;;;;;5028950;28;36429;-59
2022/07/04 11:32:07;;;;;;;3.90;0.98;;;22.60;85.40;;;;;;5028498;28;37073;-60
2022/07/04 11:34:35;;;;;;;4.15;0.80;;;22.70;85.40;;;;;;5026770;28;37328;-59
2022/07/04 11:37:04;;;;;;;2.47;0.68;;;22.80;83.10;;;;;;5029137;28;36906;-59
2022/07/04 11:39:31;;;;;;;4.35;0.98;;;22.90;83.40;;;;;;5029863;28;36552;-59
2022/07/04 11:45:05;;;;;;;5.00;0.93;;;22.90;79.80;;;;;;5030055;28;38209;-60
2022/07/04 11:47:40;;;;;;;2.72;0.85;;;22.90;80.90;;;;;;5029685;28;35799;-60
2022/07/04 11:50:10;;;;;;;2.22;0.75;;;22.90;80.10;;;;;;5026559;28;38386;-61
2022/07/04 11:52:43;;;;;;;1.77;0.60;;;22.90;77.40;;;;;;5027598;28;38492;-59
2022/07/04 11:55:13;;;;;;;9.50;1.35;;;22.80;78.30;;;;;;5029340;28;37430;-56
2022/07/04 11:57:42;;;;;;;4.65;1.27;;;22.90;80.10;;;;;;5028550;28;36927;-56
2022/07/04 12:00:13;;;;;;;4.18;0.90;;;22.80;79.00;;;;;;5028813;28;36590;-56
2022/07/04 12:02:41;;;;;;;4.30;1.10;;;22.90;76.40;;;;;;5028406;28;36379;-56
2022/07/04 12:05:11;;;;;;;8.35;1.50;;;22.80;75.60;;;;;;5028230;28;38284;-56
2022/07/04 12:07:40;;;;;;;4.05;0.95;;;22.80;76.20;;;;;;5026296;28;35776;-56
2022/07/04 12:10:12;;;;;;;5.82;1.23;;;22.70;78.40;;;;;;5026905;28;37955;-56
2022/07/04 12:12:53;;;;;;;7.80;1.35;;;22.60;75.80;;;;;;5027645;28;38180;-56
2022/07/04 12:15:21;;;;;;;4.68;1.23;;;22.60;77.00;;;;;;5028732;28;38769;-56
2022/07/04 12:17:51;;;;;;;4.70;1.10;;;22.60;78.40;;;;;;5028838;28;36853;-56
2022/07/04 12:20:21;;;;;;;2.60;0.90;;;22.60;79.00;;;;;;5028336;28;35445;-56
2022/07/04 12:22:52;;;;;;;3.70;1.20;;;22.50;78.70;;;;;;5028000;28;38654;-56
2022/07/04 12:25:24;;;;;;;6.97;1.52;;;22.50;78.70;;;;;;5027040;28;37589;-56
2022/07/04 12:27:56;;;;;;;2.72;1.10;;;22.40;78.70;;;;;;5027834;28;36773;-60
2022/07/04 12:30:24;;;;;;;15.02;1.75;;;22.30;77.90;;;;;;5028043;28;38697;-59
2022/07/04 12:32:53;;;;;;;7.95;1.55;;;22.20;79.50;;;;;;5028457;28;38669;-59
2022/07/04 12:35:43;;;;;;;4.07;0.85;;;22.20;80.30;;;;;;5028201;28;38222;-59
2022/07/04 12:38:12;;;;;;;6.88;1.08;;;22.30;84.10;;;;;;5028228;28;38131;-59
2022/07/04 12:40:55;;;;;;;4.30;0.90;;;22.30;83.90;;;;;;5027468;28;35327;-59
2022/07/04 12:43:23;;;;;;;4.20;1.13;;;22.30;83.10;;;;;;5028042;28;36981;-60
2022/07/04 12:45:53;;;;;;;5.22;0.90;;;22.20;83.00;;;;;;5027328;28;37544;-60
2022/07/04 12:48:24;;;;;;;3.33;1.13;;;22.10;84.00;;;;;;5028487;28;35743;-59
2022/07/04 12:50:53;;;;;;;5.65;1.40;;;22.10;83.30;;;;;;5027141;28;35414;-60
2022/07/04 12:53:21;;;;;;;3.05;0.82;;;22.10;82.50;;;;;;5027854;28;36336;-58
2022/07/04 12:55:50;;;;;;;3.95;1.17;;;22.10;82.30;;;;;;5028222;28;36854;-59
2022/07/04 12:58:17;;;;;;;3.13;0.98;;;22.10;81.70;;;;;;5028325;28;36805;-56
2022/07/04 13:00:44;;;;;;;4.43;1.00;;;22.20;82.00;;;;;;5027616;28;36514;-57
2022/07/04 13:03:12;;;;;;;2.55;0.93;;;22.30;83.90;;;;;;5027910;28;37220;-56
2022/07/04 13:05:39;;;;;;;3.88;0.80;;;22.30;81.80;;;;;;5027375;28;36634;-59
2022/07/04 13:08:08;;;;;;;6.22;1.02;;;22.30;81.40;;;;;;5027534;28;36875;-60
2022/07/04 13:10:36;;;;;;;9.15;1.20;;;22.30;79.80;;;;;;5028945;28;37839;-56
2022/07/04 13:13:03;;;;;;;8.77;1.55;;;22.30;78.80;;;;;;5028475;28;39721;-59